Time;durP1;ratioP1;P1;durP2;ratioP2;P2;SDS_P1;SDS_P2;PMS_P1;PMS_P2;Temp;Humidity;BMP_temperature;BMP_pressure;BME280_temperature;BME280_humidity;BME280_pressure;Samples;Min_cycle;Max_cycle;Signal;HPM_P1;HPM_P2
2023/12/25 00:00:30;;;;;;;27.48;25.48;;;;;;;7.63;100.00;100694.63;4975676;28;20090;-63
2023/12/25 00:02:59;;;;;;;28.25;25.42;;;;;;;7.35;100.00;100700.59;4973072;28;20065;-59
2023/12/25 00:05:26;;;;;;;27.95;25.95;;;;;;;7.22;100.00;100695.16;4967679;28;20074;-57
2023/12/25 00:07:53;;;;;;;25.23;23.42;;;;;;;7.44;100.00;100698.66;4968148;28;20058;-58
2023/12/25 00:10:20;;;;;;;25.38;23.48;;;;;;;7.17;100.00;100695.72;4966291;28;20065;-57
2023/12/25 00:12:47;;;;;;;27.65;25.65;;;;;;;7.10;100.00;100702.72;4970047;28;20062;-57
2023/12/25 00:15:14;;;;;;;31.25;29.15;;;;;;;7.08;100.00;100699.44;4970367;28;20054;-57
2023/12/25 00:17:42;;;;;;;26.67;24.88;;;;;;;7.11;100.00;100699.09;4969888;28;20051;-58
2023/12/25 00:20:12;;;;;;;26.92;24.65;;;;;;;6.96;100.00;100703.56;4970830;28;20055;-58
2023/12/25 00:22:38;;;;;;;33.58;31.27;;;;;;;6.61;100.00;100700.63;4975758;28;20596;-58
2023/12/25 00:25:06;;;;;;;28.40;26.30;;;;;;;7.22;100.00;100705.72;4969400;28;20057;-58
2023/12/25 00:27:33;;;;;;;23.52;21.83;;;;;;;7.19;100.00;100701.63;4964122;28;20065;-58
2023/12/25 00:30:00;;;;;;;28.30;26.30;;;;;;;6.99;100.00;100704.03;4965243;28;20043;-56
2023/12/25 00:32:27;;;;;;;31.85;29.27;;;;;;;7.22;100.00;100695.97;4970694;28;20051;-55
2023/12/25 00:34:55;;;;;;;25.40;23.50;;;;;;;7.55;100.00;100696.38;4973134;28;20050;-57
2023/12/25 00:37:22;;;;;;;24.05;22.15;;;;;;;7.52;100.00;100696.75;4966409;28;20066;-57
2023/12/25 00:39:49;;;;;;;26.42;24.42;;;;;;;7.62;100.00;100707.00;4969017;28;20047;-58
2023/12/25 00:42:16;;;;;;;23.30;21.60;;;;;;;7.37;100.00;100700.44;4978071;28;20058;-64
2023/12/25 00:44:43;;;;;;;26.58;24.48;;;;;;;7.55;100.00;100692.91;4974135;28;20069;-64
2023/12/25 00:47:10;;;;;;;24.83;22.92;;;;;;;7.44;100.00;100699.50;4972592;28;20050;-64
2023/12/25 00:49:37;;;;;;;23.50;21.60;;;;;;;7.41;100.00;100706.97;4965607;28;20420;-64
2023/12/25 00:52:05;;;;;;;23.20;21.45;;;;;;;7.52;100.00;100702.03;4978448;28;20512;-64
2023/12/25 00:54:32;;;;;;;25.02;23.13;;;;;;;7.42;100.00;100696.22;4969095;28;20500;-64
2023/12/25 00:56:59;;;;;;;27.05;25.05;;;;;;;7.14;100.00;100697.91;4972959;28;20042;-64
2023/12/25 00:59:26;;;;;;;26.35;24.45;;;;;;;7.14;100.00;100698.75;4967667;28;20050;-64
2023/12/25 01:01:53;;;;;;;30.75;28.10;;;;;;;7.03;100.00;100696.56;4965463;28;20051;-64
2023/12/25 01:04:20;;;;;;;28.75;26.15;;;;;;;6.73;100.00;100691.28;4964278;28;20572;-63
2023/12/25 01:06:46;;;;;;;27.58;25.10;;;;;;;6.25;100.00;100690.72;4962206;28;20058;-64
2023/12/25 01:09:15;;;;;;;25.85;23.95;;;;;;;5.97;100.00;100687.84;4967246;28;20059;-64
2023/12/25 01:11:42;;;;;;;27.45;25.45;;;;;;;6.08;100.00;100678.66;4967543;28;20065;-63
2023/12/25 01:14:09;;;;;;;26.98;24.98;;;;;;;6.26;100.00;100681.81;4967047;28;20054;-63
2023/12/25 01:16:36;;;;;;;27.63;25.52;;;;;;;5.91;100.00;100681.41;4968095;28;20050;-63
2023/12/25 01:19:03;;;;;;;24.27;22.38;;;;;;;6.67;100.00;100685.91;4972405;28;20057;-57
2023/12/25 01:21:32;;;;;;;24.05;22.25;;;;;;;6.30;100.00;100680.47;4971794;28;20058;-63
2023/12/25 01:23:59;;;;;;;25.17;23.15;;;;;;;6.60;100.00;100691.91;4969727;28;20086;-64
2023/12/25 01:26:30;;;;;;;25.55;23.65;;;;;;;6.28;100.00;100689.56;4972089;28;20059;-57
2023/12/25 01:28:57;;;;;;;28.98;26.92;;;;;;;6.26;100.00;100683.63;4955337;28;20047;-57
2023/12/25 01:31:24;;;;;;;24.23;22.42;;;;;;;6.57;100.00;100686.16;4967662;28;20055;-57
2023/12/25 01:33:51;;;;;;;22.58;20.88;;;;;;;6.52;100.00;100677.97;4971845;28;20054;-62
2023/12/25 01:36:21;;;;;;;24.60;22.70;;;;;;;6.62;100.00;100674.03;4965717;28;20063;-57
2023/12/25 01:38:47;;;;;;;26.35;24.35;;;;;;;6.79;100.00;100669.41;4974254;28;20055;-63
2023/12/25 01:41:14;;;;;;;26.83;24.83;;;;;;;6.55;100.00;100669.69;4978224;28;20054;-64
2023/12/25 01:43:43;;;;;;;25.67;23.77;;;;;;;6.42;100.00;100665.03;4969686;28;20051;-64
2023/12/25 01:46:13;;;;;;;25.10;23.20;;;;;;;6.54;100.00;100674.16;4976281;28;20061;-64
2023/12/25 01:48:41;;;;;;;25.00;23.10;;;;;;;6.15;100.00;100661.97;4971233;28;20129;-64
2023/12/25 01:51:08;;;;;;;25.33;23.33;;;;;;;6.15;100.00;100658.53;4972811;28;20071;-64
2023/12/25 01:53:36;;;;;;;23.98;22.08;;;;;;;6.04;100.00;100651.03;4976611;28;20058;-64
2023/12/25 01:56:03;;;;;;;25.70;23.70;;;;;;;5.87;100.00;100645.03;4971731;28;20066;-64
2023/12/25 01:58:30;;;;;;;25.95;23.95;;;;;;;5.48;100.00;100651.25;4968824;28;20524;-64
2023/12/25 02:00:58;;;;;;;24.10;22.30;;;;;;;4.94;100.00;100648.53;4980163;28;20053;-64
2023/12/25 02:03:25;;;;;;;24.02;22.23;;;;;;;4.70;100.00;100641.56;4976731;28;20058;-63
2023/12/25 02:05:52;;;;;;;25.30;23.30;;;;;;;4.47;100.00;100641.44;4968106;28;20050;-64
2023/12/25 02:08:19;;;;;;;27.63;25.42;;;;;;;4.38;100.00;100645.06;4976473;28;20062;-63
2023/12/25 02:10:46;;;;;;;26.80;24.80;;;;;;;5.71;100.00;100651.25;4975235;28;20069;-64
2023/12/25 02:13:13;;;;;;;25.40;23.50;;;;;;;4.93;100.00;100639.00;4966747;28;20055;-63
2023/12/25 02:15:40;;;;;;;24.48;22.63;;;;;;;5.65;100.00;100638.75;4972242;28;20077;-64
2023/12/25 02:18:09;;;;;;;24.38;22.50;;;;;;;5.42;100.00;100636.94;4978456;28;20062;-63
2023/12/25 02:20:36;;;;;;;25.88;23.98;;;;;;;6.22;100.00;100638.34;4973991;28;20105;-64
2023/12/25 02:23:07;;;;;;;25.17;23.13;;;;;;;6.14;100.00;100639.25;4965562;28;20061;-64
2023/12/25 02:25:36;;;;;;;24.92;23.02;;;;;;;6.04;100.00;100640.47;4970774;28;20050;-57
2023/12/25 02:28:06;;;;;;;24.67;22.88;;;;;;;5.99;100.00;100645.47;4970659;28;20047;-57
2023/12/25 02:30:32;;;;;;;23.30;21.60;;;;;;;5.67;100.00;100640.25;4973656;28;20065;-58
2023/12/25 02:33:04;;;;;;;25.48;23.58;;;;;;;5.29;100.00;100641.94;4977625;28;20053;-57
2023/12/25 02:35:31;;;;;;;25.67;23.77;;;;;;;4.72;100.00;100640.41;4974397;28;20070;-57
2023/12/25 02:37:58;;;;;;;26.83;24.73;;;;;;;4.63;100.00;100648.47;4969477;28;20078;-57
2023/12/25 02:40:25;;;;;;;25.48;23.48;;;;;;;4.38;100.00;100652.97;4976156;28;20443;-57
2023/12/25 02:42:52;;;;;;;27.20;25.20;;;;;;;4.32;100.00;100647.38;4975921;28;20053;-57
2023/12/25 02:45:20;;;;;;;26.85;24.85;;;;;;;4.34;100.00;100642.78;4975770;28;20062;-58
2023/12/25 02:47:47;;;;;;;27.98;25.77;;;;;;;4.18;100.00;100642.81;4973715;28;20059;-57
2023/12/25 02:50:14;;;;;;;28.15;25.95;;;;;;;4.17;100.00;100640.34;4968955;28;20054;-57
2023/12/25 02:52:41;;;;;;;28.05;25.73;;;;;;;4.22;100.00;100635.41;4977784;28;20062;-57
2023/12/25 02:55:11;;;;;;;29.42;26.88;;;;;;;4.04;100.00;100631.13;4970945;28;20058;-57
2023/12/25 02:57:38;;;;;;;27.02;24.92;;;;;;;4.40;100.00;100624.69;4968479;28;20574;-57
2023/12/25 03:00:06;;;;;;;32.92;30.33;;;;;;;4.34;100.00;100619.13;4974682;28;20042;-57
2023/12/25 03:02:35;;;;;;;27.45;25.25;;;;;;;4.33;100.00;100620.09;4973684;28;20051;-57
2023/12/25 03:05:02;;;;;;;26.88;24.88;;;;;;;4.41;100.00;100626.31;4973355;28;20050;-57
2023/12/25 03:07:29;;;;;;;28.80;26.52;;;;;;;4.35;100.00;100620.75;4965798;28;20054;-57
2023/12/25 03:09:55;;;;;;;31.92;29.52;;;;;;;4.43;100.00;100617.28;4966400;28;20061;-57
2023/12/25 03:12:22;;;;;;;31.33;28.90;;;;;;;4.50;100.00;100620.88;4964593;28;20063;-57
2023/12/25 03:14:48;;;;;;;27.10;24.90;;;;;;;4.52;100.00;100621.53;4972472;28;20050;-57
2023/12/25 03:17:15;;;;;;;26.40;24.10;;;;;;;4.77;100.00;100624.09;4976614;28;20058;-57
2023/12/25 03:19:43;;;;;;;26.35;24.15;;;;;;;4.91;100.00;100609.41;4972342;28;20527;-57
2023/12/25 03:22:10;;;;;;;26.83;24.83;;;;;;;4.86;100.00;100609.09;4973210;28;20448;-57
2023/12/25 03:24:37;;;;;;;28.50;26.40;;;;;;;4.96;100.00;100612.31;4969049;28;20063;-57
2023/12/25 03:27:04;;;;;;;30.30;28.00;;;;;;;4.82;100.00;100617.31;4977009;28;20417;-57
2023/12/25 03:29:31;;;;;;;26.35;24.25;;;;;;;4.81;100.00;100612.22;4961780;28;20047;-57
2023/12/25 03:31:59;;;;;;;25.90;23.90;;;;;;;4.63;100.00;100609.84;4973421;28;20050;-57
2023/12/25 03:34:25;;;;;;;27.40;25.30;;;;;;;4.57;100.00;100603.44;4971535;28;20058;-57
2023/12/25 03:36:54;;;;;;;29.48;27.15;;;;;;;4.69;100.00;100603.06;4969427;28;20475;-57
2023/12/25 03:39:20;;;;;;;28.70;26.40;;;;;;;4.50;100.00;100610.34;4970936;28;20078;-64
2023/12/25 03:41:47;;;;;;;29.48;27.17;;;;;;;4.41;100.00;100614.00;4977370;28;20066;-64
2023/12/25 03:44:14;;;;;;;29.75;27.35;;;;;;;4.25;100.00;100612.22;4976659;28;20054;-63
2023/12/25 03:46:41;;;;;;;29.55;27.25;;;;;;;4.01;100.00;100612.25;4974604;28;20050;-63
2023/12/25 03:49:08;;;;;;;28.80;26.55;;;;;;;4.08;100.00;100607.97;4968308;28;20447;-63
2023/12/25 03:51:35;;;;;;;26.98;24.83;;;;;;;4.10;100.00;100608.63;4969988;28;20135;-64
2023/12/25 03:54:04;;;;;;;27.55;25.45;;;;;;;4.00;100.00;100600.13;4979367;28;20058;-64
2023/12/25 03:56:31;;;;;;;27.40;25.20;;;;;;;3.77;100.00;100599.94;4964395;28;20067;-64
2023/12/25 03:58:58;;;;;;;28.20;25.67;;;;;;;4.12;100.00;100596.97;4966790;28;20058;-64
2023/12/25 04:01:24;;;;;;;28.80;26.60;;;;;;;4.12;100.00;100596.97;4968131;28;20714;-64
2023/12/25 04:03:51;;;;;;;29.40;27.10;;;;;;;4.08;100.00;100585.13;4973670;28;20046;-63
2023/12/25 04:06:25;;;;;;;30.98;28.48;;;;;;;4.55;100.00;100589.63;4968289;28;20058;-64
2023/12/25 04:08:52;;;;;;;30.30;28.00;;;;;;;4.48;100.00;100586.06;4978895;28;20054;-63
2023/12/25 04:11:22;;;;;;;28.63;26.33;;;;;;;4.46;100.00;100593.28;4971999;28;20128;-64
2023/12/25 04:13:53;;;;;;;30.90;28.40;;;;;;;4.24;100.00;100589.56;4967356;28;20066;-63
2023/12/25 04:16:20;;;;;;;30.10;27.80;;;;;;;4.64;100.00;100582.53;4974382;28;20050;-64
2023/12/25 04:18:47;;;;;;;29.40;27.00;;;;;;;5.11;100.00;100571.13;4971132;28;20054;-63
2023/12/25 04:21:22;;;;;;;29.08;26.88;;;;;;;6.04;100.00;100577.19;4966861;28;20058;-63
2023/12/25 04:23:50;;;;;;;26.08;24.27;;;;;;;6.26;100.00;100571.03;4970510;28;20078;-64
2023/12/25 04:26:17;;;;;;;26.30;24.60;;;;;;;6.77;100.00;100568.47;4971052;28;20460;-64
2023/12/25 04:28:45;;;;;;;25.95;24.15;;;;;;;6.97;100.00;100560.78;4963014;28;20065;-64
2023/12/25 04:31:12;;;;;;;24.02;22.23;;;;;;;7.22;100.00;100550.69;4971860;28;20054;-63
2023/12/25 04:33:39;;;;;;;23.42;21.73;;;;;;;7.57;100.00;100545.53;4977906;28;20054;-64
2023/12/25 04:36:06;;;;;;;25.20;23.23;;;;;;;7.52;100.00;100540.81;4972087;28;20047;-64
2023/12/25 04:38:33;;;;;;;23.98;22.17;;;;;;;7.55;100.00;100555.47;4966912;28;20760;-64
2023/12/25 04:41:00;;;;;;;24.70;23.00;;;;;;;7.52;100.00;100551.38;4972523;28;20050;-63
2023/12/25 04:43:26;;;;;;;26.10;24.40;;;;;;;7.41;100.00;100541.31;4967576;28;20390;-64
2023/12/25 04:45:55;;;;;;;25.08;23.38;;;;;;;7.40;100.00;100547.63;4973810;28;20515;-63
2023/12/25 04:48:22;;;;;;;23.95;21.63;;;;;;;7.44;100.00;100535.66;4970650;28;20065;-64
2023/12/25 04:50:49;;;;;;;22.83;21.15;;;;;;;7.40;100.00;100536.22;4971010;28;20520;-63
2023/12/25 04:53:15;;;;;;;25.25;23.45;;;;;;;7.36;100.00;100542.91;4974612;28;20054;-64
2023/12/25 04:55:42;;;;;;;23.92;22.25;;;;;;;7.76;100.00;100560.75;4970300;28;20062;-63
2023/12/25 04:58:09;;;;;;;24.55;22.85;;;;;;;7.92;100.00;100577.34;4969360;28;20054;-64
2023/12/25 05:00:36;;;;;;;24.15;22.45;;;;;;;7.80;100.00;100584.97;4969033;28;20078;-64
2023/12/25 05:03:05;;;;;;;22.35;20.75;;;;;;;7.82;100.00;100595.38;4975780;28;20451;-63
2023/12/25 05:05:32;;;;;;;22.40;20.80;;;;;;;7.71;100.00;100586.91;4965816;28;20051;-57
2023/12/25 05:07:59;;;;;;;21.08;19.48;;;;;;;7.82;100.00;100577.66;4966966;28;20702;-57
2023/12/25 05:10:26;;;;;;;21.25;19.75;;;;;;;7.84;100.00;100565.09;4965317;28;20053;-58
2023/12/25 05:12:53;;;;;;;21.85;20.25;;;;;;;7.70;100.00;100568.63;4963448;28;20043;-57
2023/12/25 05:15:20;;;;;;;23.48;21.60;;;;;;;8.07;100.00;100566.66;4969068;28;20062;-57
2023/12/25 05:17:46;;;;;;;24.80;23.10;;;;;;;8.16;100.00;100557.56;4975577;28;20061;-57
2023/12/25 05:20:15;;;;;;;22.30;20.65;;;;;;;8.13;100.00;100552.66;4968199;28;20055;-57
2023/12/25 05:22:42;;;;;;;23.05;21.35;;;;;;;8.07;100.00;100562.19;4972380;28;20061;-57
2023/12/25 05:25:09;;;;;;;25.77;23.98;;;;;;;8.04;100.00;100559.94;4973563;28;20050;-57
2023/12/25 05:27:36;;;;;;;22.17;20.58;;;;;;;7.99;100.00;100557.88;4972948;28;20055;-57
2023/12/25 05:30:03;;;;;;;22.73;21.02;;;;;;;7.66;100.00;100557.63;4966553;28;20050;-57
2023/12/25 05:32:30;;;;;;;22.17;20.58;;;;;;;7.62;100.00;100561.63;4977852;28;20579;-57
2023/12/25 05:34:57;;;;;;;22.85;21.25;;;;;;;7.54;100.00;100556.50;4965102;28;20078;-57
2023/12/25 05:37:25;;;;;;;22.92;21.23;;;;;;;7.72;100.00;100559.50;4975270;28;20054;-58
2023/12/25 05:39:52;;;;;;;22.35;20.85;;;;;;;7.88;100.00;100562.88;4974482;28;20678;-57
2023/12/25 05:42:20;;;;;;;21.13;19.52;;;;;;;7.91;100.00;100567.78;4980167;28;20086;-58
2023/12/25 05:44:46;;;;;;;20.60;19.00;;;;;;;7.94;100.00;100572.69;4973356;28;20133;-58
2023/12/25 05:47:13;;;;;;;20.20;18.70;;;;;;;7.82;100.00;100559.16;4977186;28;20098;-58
2023/12/25 05:49:40;;;;;;;20.83;19.25;;;;;;;8.14;100.00;100560.41;4969612;28;20125;-58
2023/12/25 05:52:07;;;;;;;21.95;20.35;;;;;;;7.94;100.00;100564.75;4966457;28;20059;-57
2023/12/25 05:54:36;;;;;;;21.25;19.65;;;;;;;8.06;100.00;100575.63;4970148;28;20448;-57
2023/12/25 05:57:03;;;;;;;21.90;20.20;;;;;;;8.41;100.00;100576.47;4969211;28;20057;-57
2023/12/25 05:59:29;;;;;;;42.40;20.60;;;;;;;8.46;100.00;100576.72;4972545;28;20516;-57
2023/12/25 06:01:56;;;;;;;22.02;20.35;;;;;;;8.33;100.00;100574.78;4974840;28;20054;-57
2023/12/25 06:04:23;;;;;;;21.10;19.50;;;;;;;8.53;100.00;100572.25;4971670;28;20592;-64
2023/12/25 06:06:53;;;;;;;20.65;19.05;;;;;;;8.37;100.00;100572.56;4970544;28;20074;-64
2023/12/25 06:09:20;;;;;;;20.35;18.85;;;;;;;8.92;100.00;100560.22;4970170;28;20065;-57
2023/12/25 06:11:48;;;;;;;22.90;21.30;;;;;;;8.87;100.00;100573.25;4977636;28;20061;-58
2023/12/25 06:14:15;;;;;;;21.77;20.08;;;;;;;8.65;100.00;100572.53;4970101;28;20066;-57
2023/12/25 06:16:42;;;;;;;20.88;19.27;;;;;;;9.07;100.00;100578.59;4972292;28;20655;-57
2023/12/25 06:19:09;;;;;;;20.75;19.15;;;;;;;9.01;100.00;100572.25;4974028;28;20071;-63
2023/12/25 06:21:36;;;;;;;21.10;19.50;;;;;;;9.17;100.00;100582.50;4970941;28;21148;-63
2023/12/25 06:24:03;;;;;;;21.40;19.75;;;;;;;9.08;100.00;100582.91;4972465;28;20057;-57
2023/12/25 06:26:30;;;;;;;22.85;21.15;;;;;;;9.37;100.00;100589.69;4967880;28;20066;-57
2023/12/25 06:28:58;;;;;;;23.60;21.90;;;;;;;9.30;100.00;100587.03;4967221;28;20092;-57
2023/12/25 06:31:24;;;;;;;21.20;19.60;;;;;;;9.22;100.00;100589.84;4971207;28;20062;-57
2023/12/25 06:33:51;;;;;;;21.95;20.35;;;;;;;9.51;100.00;100594.00;4971909;28;20054;-57
2023/12/25 06:36:18;;;;;;;26.30;23.92;;;;;;;9.87;100.00;100590.16;4966710;28;20072;-57
2023/12/25 06:38:45;;;;;;;24.02;22.23;;;;;;;9.76;100.00;100596.88;4971186;28;20055;-57
2023/12/25 06:41:12;;;;;;;22.13;20.52;;;;;;;10.00;100.00;100603.41;4975341;28;20051;-57
2023/12/25 06:43:38;;;;;;;22.38;20.77;;;;;;;9.94;100.00;100608.72;4975916;28;20058;-57
2023/12/25 06:46:07;;;;;;;26.40;24.60;;;;;;;10.08;100.00;100610.38;4971787;28;20515;-58
2023/12/25 06:48:34;;;;;;;22.90;21.30;;;;;;;9.97;100.00;100614.44;4973458;28;20055;-58
2023/12/25 06:51:01;;;;;;;29.40;27.50;;;;;;;10.70;100.00;100618.84;4974074;28;20436;-57
2023/12/25 06:53:28;;;;;;;34.70;32.60;;;;;;;10.78;100.00;100622.09;4974975;28;20047;-57
2023/12/25 06:55:55;;;;;;;26.77;25.08;;;;;;;10.81;100.00;100628.03;4973843;28;20055;-58
2023/12/25 06:58:22;;;;;;;27.10;25.40;;;;;;;10.67;100.00;100630.72;4968227;28;20432;-58
2023/12/25 07:00:49;;;;;;;28.85;27.08;;;;;;;9.95;100.00;100620.97;4971924;28;20047;-57
2023/12/25 07:03:18;;;;;;;28.33;26.52;;;;;;;10.27;100.00;100619.34;4974968;28;20050;-58
2023/12/25 07:05:45;;;;;;;27.13;25.33;;;;;;;10.26;100.00;100621.19;4969220;28;20193;-58
2023/12/25 07:08:12;;;;;;;28.00;26.00;;;;;;;9.88;100.00;100626.28;4973881;28;20062;-57
2023/12/25 07:10:39;;;;;;;31.23;29.02;;;;;;;11.26;100.00;100634.19;4970863;28;20055;-58
2023/12/25 07:13:06;;;;;;;28.77;26.88;;;;;;;10.82;100.00;100640.28;4969631;28;20053;-61
2023/12/25 07:15:34;;;;;;;27.73;25.83;;;;;;;10.98;100.00;100642.47;4966174;28;20098;-57
2023/12/25 07:18:01;;;;;;;27.50;25.60;;;;;;;11.63;100.00;100639.69;4977934;28;20066;-57
2023/12/25 07:20:29;;;;;;;31.55;29.45;;;;;;;11.69;100.00;100641.50;4970461;28;20480;-57
2023/12/25 07:22:56;;;;;;;32.05;29.95;;;;;;;11.41;100.00;100639.22;4961262;28;20705;-57
2023/12/25 07:25:23;;;;;;;30.52;28.48;;;;;;;12.07;100.00;100644.13;4970418;28;20066;-58
2023/12/25 07:27:49;;;;;;;29.20;27.30;;;;;;;12.31;100.00;100639.78;4971432;28;20065;-58
2023/12/25 07:30:16;;;;;;;26.65;24.85;;;;;;;13.45;100.00;100647.34;4962764;28;20054;-58
2023/12/25 07:32:43;;;;;;;27.17;25.08;;;;;;;12.98;100.00;100644.44;4976904;28;20054;-58
2023/12/25 07:35:11;;;;;;;30.73;28.73;;;;;;;13.55;100.00;100642.28;4968468;28;20063;-57
2023/12/25 07:37:39;;;;;;;32.65;30.45;;;;;;;13.47;100.00;100640.75;4966921;28;20055;-58
2023/12/25 07:40:07;;;;;;;32.70;30.60;;;;;;;13.83;100.00;100636.34;4969358;28;20797;-58
2023/12/25 07:42:34;;;;;;;38.72;36.33;;;;;;;12.71;100.00;100636.75;4971896;28;20535;-58
2023/12/25 07:45:01;;;;;;;32.70;30.60;;;;;;;13.96;100.00;100637.97;4971005;28;20054;-58
2023/12/25 07:47:28;;;;;;;35.80;33.45;;;;;;;14.29;100.00;100639.28;4971762;28;20066;-58
2023/12/25 07:49:55;;;;;;;40.70;38.10;;;;;;;14.06;100.00;100648.91;4966551;28;20059;-58
2023/12/25 07:52:22;;;;;;;38.60;36.10;;;;;;;14.08;100.00;100644.16;4974101;28;20516;-58
2023/12/25 07:54:50;;;;;;;36.08;33.67;;;;;;;14.06;100.00;100648.91;4968717;28;20050;-58
2023/12/25 07:57:17;;;;;;;34.45;31.85;;;;;;;14.53;100.00;100640.13;4966814;28;20069;-58
2023/12/25 07:59:44;;;;;;;30.73;28.52;;;;;;;15.20;100.00;100634.28;4970316;28;20054;-58
2023/12/25 08:02:11;;;;;;;35.05;32.75;;;;;;;15.58;100.00;100658.56;4971602;28;20069;-58
2023/12/25 08:04:38;;;;;;;32.80;30.50;;;;;;;14.99;100.00;100655.28;4968097;28;20086;-58
2023/12/25 08:07:04;;;;;;;32.58;30.17;;;;;;;15.27;100.00;100659.84;4965036;28;20050;-58
2023/12/25 08:09:32;;;;;;;33.80;31.40;;;;;;;15.62;100.00;100664.25;4968222;28;20082;-58
2023/12/25 08:12:00;;;;;;;22.05;20.15;;;;;;;15.02;100.00;100660.16;4976180;28;20050;-57
2023/12/25 08:14:27;;;;;;;23.42;21.33;;;;;;;14.98;100.00;100659.00;4972336;28;20467;-58
2023/12/25 08:16:53;;;;;;;22.08;20.17;;;;;;;15.07;100.00;100651.44;4966558;28;20055;-56
2023/12/25 08:19:20;;;;;;;24.20;22.10;;;;;;;16.10;100.00;100654.09;4967460;28;20054;-58
2023/12/25 08:21:47;;;;;;;37.28;34.67;;;;;;;15.38;100.00;100660.84;4968137;28;20397;-57
2023/12/25 08:24:14;;;;;;;37.15;34.45;;;;;;;15.88;100.00;100672.75;4968746;28;20086;-56
2023/12/25 08:26:42;;;;;;;44.35;41.35;;;;;;;15.23;100.00;100674.75;4963144;28;20054;-56
2023/12/25 08:29:11;;;;;;;40.40;37.47;;;;;;;15.03;100.00;100674.34;4962358;28;20093;-58
2023/12/25 08:31:40;;;;;;;50.25;47.05;;;;;;;15.41;100.00;100675.63;4964791;28;20174;-56
2023/12/25 08:34:06;;;;;;;37.25;34.72;;;;;;;15.82;100.00;100687.91;4969426;28;20050;-62
2023/12/25 08:36:33;;;;;;;22.45;20.45;;;;;;;14.44;100.00;100687.72;4970316;28;20063;-63
2023/12/25 08:39:00;;;;;;;22.73;20.73;;;;;;;14.96;100.00;100684.34;4967857;28;20054;-63
2023/12/25 08:41:27;;;;;;;22.25;20.25;;;;;;;15.75;100.00;100695.28;4961796;28;20433;-63
2023/12/25 08:43:54;;;;;;;25.13;21.23;;;;;;;14.68;100.00;100688.56;4962312;28;20088;-63
2023/12/25 08:46:23;;;;;;;22.83;20.75;;;;;;;14.84;100.00;100687.03;4970742;28;20085;-62
2023/12/25 08:48:50;;;;;;;47.20;44.00;;;;;;;15.41;100.00;100702.38;4963671;28;20588;-63
2023/12/25 08:51:17;;;;;;;48.35;45.15;;;;;;;15.45;100.00;100703.53;4964915;28;20060;-56
2023/12/25 08:53:44;;;;;;;45.88;42.78;;;;;;;15.16;100.00;100695.47;4963568;28;20057;-56
2023/12/25 08:56:11;;;;;;;52.30;48.75;;;;;;;13.96;100.00;100712.75;4964173;28;20631;-63
2023/12/25 08:58:40;;;;;;;23.75;21.65;;;;;;;14.47;100.00;100721.19;4965257;28;20051;-62
2023/12/25 09:01:07;;;;;;;24.42;22.33;;;;;;;14.09;100.00;100717.06;4965725;28;20063;-58
2023/12/25 09:03:35;;;;;;;23.40;21.40;;;;;;;15.12;100.00;100721.06;4961671;28;20053;-57
2023/12/25 09:06:02;;;;;;;24.95;22.75;;;;;;;15.61;100.00;100718.81;4964083;28;20050;-56
2023/12/25 09:08:30;;;;;;;23.70;21.50;;;;;;;15.58;100.00;100714.78;4972987;28;20050;-56
2023/12/25 09:10:57;;;;;;;24.17;21.98;;;;;;;15.60;100.00;100714.53;4967061;28;20059;-57
2023/12/25 09:13:24;;;;;;;24.13;21.95;;;;;;;16.61;100.00;100711.13;4962183;28;20113;-58
2023/12/25 09:15:51;;;;;;;24.23;22.13;;;;;;;14.60;100.00;100711.13;4963889;28;20138;-59
2023/12/25 09:18:18;;;;;;;25.30;23.10;;;;;;;15.10;100.00;100710.59;4962919;28;20199;-58
2023/12/25 09:20:46;;;;;;;25.63;23.33;;;;;;;15.70;100.00;100708.56;4963499;28;20490;-60
2023/12/25 09:23:13;;;;;;;24.20;21.90;;;;;;;15.25;100.00;100717.31;4964777;28;20526;-56
2023/12/25 09:25:40;;;;;;;24.45;22.35;;;;;;;14.70;100.00;100699.84;4965728;28;20053;-56
2023/12/25 09:28:08;;;;;;;25.48;23.48;;;;;;;16.41;100.00;100701.75;4962345;28;20058;-57
2023/12/25 09:30:35;;;;;;;25.55;23.45;;;;;;;15.73;100.00;100698.22;4958051;28;20051;-56
2023/12/25 09:33:03;;;;;;;29.33;24.08;;;;;;;14.03;100.00;100691.28;4965751;28;20463;-57
2023/12/25 09:35:30;;;;;;;26.05;23.65;;;;;;;16.34;100.00;100681.50;4965235;28;20054;-56
2023/12/25 09:37:58;;;;;;;23.25;21.05;;;;;;;16.03;100.00;100689.06;4964004;28;20051;-60
2023/12/25 09:40:25;;;;;;;24.95;22.67;;;;;;;15.82;100.00;100687.09;4961988;28;20057;-57
2023/12/25 09:42:53;;;;;;;26.85;24.45;;;;;;;16.08;100.00;100670.41;4964087;28;20050;-57
2023/12/25 09:45:20;;;;;;;24.95;22.65;;;;;;;15.07;100.00;100689.69;4958839;28;20051;-57
2023/12/25 09:47:47;;;;;;;26.65;24.35;;;;;;;16.16;100.00;100675.38;4962133;28;20449;-57
2023/12/25 09:50:15;;;;;;;24.20;22.10;;;;;;;16.25;100.00;100691.84;4971874;28;20063;-57
2023/12/25 09:52:42;;;;;;;27.73;25.42;;;;;;;14.65;100.00;100684.50;4970004;28;20498;-57
2023/12/25 09:55:11;;;;;;;25.50;23.20;;;;;;;15.63;100.00;100687.28;4968247;28;20066;-57
2023/12/25 09:57:40;;;;;;;23.70;21.60;;;;;;;16.84;100.00;100673.41;4967025;28;20054;-57
2023/12/25 10:00:09;;;;;;;24.67;22.48;;;;;;;16.04;100.00;100674.63;4967323;28;20051;-57
2023/12/25 10:02:38;;;;;;;25.20;23.00;;;;;;;15.86;100.00;100682.91;4967892;28;20043;-57
2023/12/25 10:05:07;;;;;;;24.67;22.38;;;;;;;17.15;100.00;100671.91;4976080;28;20137;-57
2023/12/25 10:07:34;;;;;;;24.00;21.80;;;;;;;16.18;100.00;100683.16;4971263;28;20054;-58
2023/12/25 10:10:02;;;;;;;24.95;22.85;;;;;;;16.21;100.00;100680.78;4966886;28;20571;-57
2023/12/25 10:12:30;;;;;;;24.65;22.52;;;;;;;17.15;100.00;100669.22;4966109;28;20054;-57
2023/12/25 10:14:57;;;;;;;25.23;22.83;;;;;;;16.39;100.00;100666.31;4962118;28;20058;-57
2023/12/25 10:17:23;;;;;;;22.90;20.80;;;;;;;15.44;100.00;100661.78;4969245;28;20050;-57
2023/12/25 10:19:52;;;;;;;24.73;22.42;;;;;;;16.22;100.00;100654.81;4966779;28;20441;-57
2023/12/25 10:22:30;;;;;;;24.73;22.42;;;;;;;15.53;100.00;100661.13;4970125;28;20496;-57
2023/12/25 10:25:06;;;;;;;23.70;21.60;;;;;;;15.52;100.00;100654.16;4972604;28;20425;-57
2023/12/25 10:27:34;;;;;;;23.58;21.48;;;;;;;16.67;100.00;100646.63;4975730;28;20051;-57
2023/12/25 10:30:03;;;;;;;22.88;20.88;;;;;;;16.42;100.00;100644.38;4964368;28;20479;-57
2023/12/25 10:32:30;;;;;;;25.42;23.23;;;;;;;18.20;100.00;100641.25;4966801;28;20057;-58
2023/12/25 10:35:10;;;;;;;24.75;22.55;;;;;;;16.47;100.00;100657.88;4962988;28;20146;-57
2023/12/25 10:37:41;;;;;;;26.50;24.20;;;;;;;18.93;100.00;100638.72;4954138;28;20047;-57
2023/12/25 10:40:22;;;;;;;26.25;23.95;;;;;;;18.18;100.00;100641.50;4955501;28;20539;-57
2023/12/25 10:42:52;;;;;;;24.90;22.60;;;;;;;16.84;100.00;100637.75;4954416;28;20055;-61
2023/12/25 10:45:22;;;;;;;24.17;22.08;;;;;;;15.27;100.00;100640.28;4959355;28;20061;-57
2023/12/25 10:47:50;;;;;;;24.08;21.88;;;;;;;15.33;100.00;100642.03;4958498;28;20055;-57
2023/12/25 10:50:20;;;;;;;24.48;22.27;;;;;;;18.01;100.00;100638.16;4963738;28;20487;-57
2023/12/25 10:52:49;;;;;;;23.60;21.40;;;;;;;17.65;100.00;100631.66;4959295;28;20403;-57
2023/12/25 10:55:24;;;;;;;24.75;22.45;;;;;;;17.57;100.00;100630.22;4964234;28;20117;-57
2023/12/25 10:57:53;;;;;;;27.38;24.88;;;;;;;17.78;100.00;100633.94;4961007;28;20063;-57
2023/12/25 11:00:22;;;;;;;24.80;22.50;;;;;;;17.30;100.00;100624.84;4959744;28;20059;-57
2023/12/25 11:02:55;;;;;;;26.02;23.63;;;;;;;14.84;100.00;100623.69;4960894;28;20082;-57
2023/12/25 11:05:22;;;;;;;26.52;24.13;;;;;;;18.10;100.00;100607.06;4960828;28;20505;-57
2023/12/25 11:07:50;;;;;;;26.10;23.70;;;;;;;16.37;100.00;100611.34;4960138;28;20055;-57